Time;durP1;ratioP1;P1;durP2;ratioP2;P2;SDS_P1;SDS_P2;PMS_P1;PMS_P2;Temp;Humidity;BMP_temperature;BMP_pressure;BME280_temperature;BME280_humidity;BME280_pressure;Samples;Min_cycle;Max_cycle;Signal;HPM_P1;HPM_P2
2021/11/11 00:01:46;;;;;;;15.30;11.40;;;12.70;99.90;;;;;;5087633;28;20052;-67
2021/11/11 00:04:16;;;;;;;14.50;11.95;;;12.70;99.90;;;;;;5088855;28;20040;-67
2021/11/11 00:06:43;;;;;;;14.77;11.55;;;12.60;99.90;;;;;;5089861;28;20047;-67
2021/11/11 00:09:10;;;;;;;12.73;10.88;;;12.60;99.90;;;;;;5071119;28;20052;-67
2021/11/11 00:11:37;;;;;;;13.45;11.82;;;12.60;99.90;;;;;;5071465;28;20457;-67
2021/11/11 00:14:04;;;;;;;12.27;10.80;;;12.60;99.90;;;;;;5088345;28;20047;-67
2021/11/11 00:16:31;;;;;;;14.75;11.45;;;12.60;99.90;;;;;;5088893;28;20070;-67
2021/11/11 00:18:58;;;;;;;201.15;131.95;;;12.70;99.90;;;;;;5088508;28;20447;-66
2021/11/11 00:21:26;;;;;;;47.63;40.47;;;12.70;99.90;;;;;;5088111;28;20063;-66
2021/11/11 00:23:53;;;;;;;18.50;13.75;;;12.70;99.90;;;;;;5090451;28;20488;-67
2021/11/11 00:26:19;;;;;;;12.85;10.73;;;12.60;99.90;;;;;;5070845;28;20056;-66
2021/11/11 00:28:46;;;;;;;12.55;10.77;;;12.70;99.90;;;;;;5082634;28;20044;-66
2021/11/11 00:31:13;;;;;;;12.18;10.73;;;12.70;99.90;;;;;;5088462;28;20087;-66
2021/11/11 00:33:40;;;;;;;12.25;10.40;;;12.60;99.90;;;;;;5089981;28;20055;-67
2021/11/11 00:36:07;;;;;;;9.35;8.23;;;12.70;99.90;;;;;;5087078;28;20048;-67
2021/11/11 00:38:34;;;;;;;9.27;8.07;;;12.70;99.90;;;;;;5088240;28;20048;-67
2021/11/11 00:41:01;;;;;;;10.73;7.97;;;12.70;99.90;;;;;;5087255;28;20048;-67
2021/11/11 00:43:28;;;;;;;7.95;6.63;;;12.70;99.90;;;;;;5089370;28;20499;-67
2021/11/11 00:45:55;;;;;;;5.82;4.85;;;12.70;99.90;;;;;;5087102;28;20088;-67
2021/11/11 00:48:22;;;;;;;9.70;5.82;;;12.60;99.90;;;;;;5069430;28;20057;-67
2021/11/11 00:50:49;;;;;;;7.45;4.80;;;12.60;99.90;;;;;;5087890;28;20051;-67
2021/11/11 00:53:16;;;;;;;5.40;4.30;;;12.60;99.90;;;;;;5091690;28;20056;-67
2021/11/11 00:55:43;;;;;;;6.22;4.63;;;12.50;99.90;;;;;;5088381;28;20059;-66
2021/11/11 00:58:10;;;;;;;4.93;4.15;;;12.50;99.90;;;;;;5092408;28;20051;-67
2021/11/11 01:00:38;;;;;;;6.20;4.05;;;12.50;99.90;;;;;;5085639;28;20078;-66
2021/11/11 01:03:08;;;;;;;4.78;3.83;;;12.60;99.90;;;;;;5097461;28;20048;-67
2021/11/11 01:05:36;;;;;;;4.40;3.42;;;12.50;99.90;;;;;;5096138;28;20048;-67
2021/11/11 01:08:03;;;;;;;7.30;4.03;;;12.50;99.90;;;;;;5091960;28;20070;-67
2021/11/11 01:10:30;;;;;;;5.28;3.08;;;12.50;99.90;;;;;;5091511;28;20056;-67
2021/11/11 01:12:57;;;;;;;4.70;3.05;;;12.50;99.90;;;;;;5090840;28;20040;-68
2021/11/11 01:15:26;;;;;;;7.07;3.53;;;12.50;99.90;;;;;;5092475;28;20103;-68
2021/11/11 01:17:53;;;;;;;4.20;3.35;;;12.50;99.90;;;;;;5092071;28;20247;-67
2021/11/11 01:20:20;;;;;;;3.65;3.00;;;12.50;99.90;;;;;;5092630;28;20080;-66
2021/11/11 01:22:48;;;;;;;4.10;2.90;;;12.50;99.90;;;;;;5090901;28;20491;-67
2021/11/11 01:25:17;;;;;;;4.30;2.75;;;12.50;99.90;;;;;;5074072;28;20140;-67
2021/11/11 01:27:44;;;;;;;5.00;3.00;;;12.40;99.90;;;;;;5092033;28;20044;-67
2021/11/11 01:30:11;;;;;;;3.72;2.63;;;12.50;99.90;;;;;;5091117;28;20059;-67
2021/11/11 01:32:38;;;;;;;3.90;3.10;;;12.50;99.90;;;;;;5092364;28;20051;-67
2021/11/11 01:35:05;;;;;;;4.45;2.40;;;12.50;99.90;;;;;;5091380;28;20100;-67
2021/11/11 01:37:32;;;;;;;2.75;2.50;;;12.50;99.90;;;;;;5091767;28;20105;-67
2021/11/11 01:39:59;;;;;;;3.35;2.50;;;12.50;99.90;;;;;;5093259;28;20044;-67
2021/11/11 01:42:26;;;;;;;4.35;2.47;;;12.50;99.90;;;;;;5091944;28;20052;-67
2021/11/11 01:44:54;;;;;;;4.95;2.40;;;12.50;99.90;;;;;;5090557;28;20048;-66
2021/11/11 01:47:21;;;;;;;4.95;2.70;;;12.50;99.90;;;;;;5089861;28;20069;-67
2021/11/11 01:49:48;;;;;;;4.00;2.90;;;12.50;99.90;;;;;;5074091;28;20055;-67
2021/11/11 01:52:18;;;;;;;3.42;2.40;;;12.40;99.90;;;;;;5095574;28;20411;-67
2021/11/11 01:54:45;;;;;;;3.63;2.58;;;12.40;99.90;;;;;;5089938;28;20056;-67
2021/11/11 01:57:13;;;;;;;3.95;2.47;;;12.40;99.90;;;;;;5089179;28;20047;-66
2021/11/11 01:59:40;;;;;;;3.08;2.00;;;12.40;99.90;;;;;;5091451;28;20126;-68
2021/11/11 02:02:28;;;;;;;2.80;2.25;;;12.40;99.90;;;;;;5090583;28;20072;-68
2021/11/11 02:04:56;;;;;;;5.05;3.25;;;12.30;99.90;;;;;;5089967;28;20114;-68
2021/11/11 02:07:23;;;;;;;2.40;1.90;;;12.30;99.90;;;;;;5073961;28;20509;-68
2021/11/11 02:09:50;;;;;;;4.18;2.28;;;12.30;99.90;;;;;;5090934;28;20059;-68
2021/11/11 02:12:16;;;;;;;4.00;2.17;;;12.30;99.90;;;;;;5091110;28;20063;-68
2021/11/11 02:14:44;;;;;;;4.38;2.47;;;12.20;99.90;;;;;;5090631;28;20123;-68
2021/11/11 02:17:10;;;;;;;4.20;2.60;;;12.20;99.90;;;;;;5091199;28;20448;-68
2021/11/11 02:19:43;;;;;;;3.53;2.60;;;12.20;99.90;;;;;;5073987;28;20055;-68
2021/11/11 02:22:10;;;;;;;4.88;3.05;;;12.10;99.90;;;;;;5094839;28;20054;-68
2021/11/11 02:24:37;;;;;;;5.00;2.47;;;12.10;99.90;;;;;;5091219;28;20048;-68
2021/11/11 02:27:04;;;;;;;4.50;2.85;;;12.10;99.90;;;;;;5091158;28;20126;-68
2021/11/11 02:29:31;;;;;;;4.18;2.90;;;12.00;99.90;;;;;;5089727;28;20059;-68
2021/11/11 02:31:58;;;;;;;3.95;2.80;;;12.00;99.90;;;;;;5092215;28;20051;-68
2021/11/11 02:34:25;;;;;;;5.22;3.10;;;11.90;99.90;;;;;;5090198;28;20048;-68
2021/11/11 02:37:02;;;;;;;4.15;2.63;;;11.90;99.90;;;;;;5072289;28;20120;-68
2021/11/11 02:39:34;;;;;;;5.32;3.58;;;11.80;99.90;;;;;;5088102;28;20052;-67
2021/11/11 02:42:03;;;;;;;4.57;2.88;;;11.70;99.90;;;;;;5079370;28;20419;-68
2021/11/11 02:44:31;;;;;;;5.97;3.30;;;11.60;99.90;;;;;;5090345;28;20048;-68
2021/11/11 02:46:58;;;;;;;4.35;3.33;;;11.60;99.90;;;;;;5073088;28;20036;-68
2021/11/11 02:49:32;;;;;;;4.47;3.30;;;11.50;99.90;;;;;;5090209;28;20048;-68
2021/11/11 02:52:00;;;;;;;4.88;3.33;;;11.50;99.90;;;;;;5095057;28;20047;-67
2021/11/11 02:54:27;;;;;;;5.70;3.88;;;11.40;99.90;;;;;;5091270;28;20052;-67
2021/11/11 02:56:54;;;;;;;7.30;4.25;;;11.40;99.90;;;;;;5073064;28;20044;-67
2021/11/11 02:59:21;;;;;;;5.60;4.43;;;11.30;99.90;;;;;;5072749;28;20446;-67
2021/11/11 03:01:47;;;;;;;6.70;3.97;;;11.30;99.90;;;;;;5088669;28;20138;-67
2021/11/11 03:04:15;;;;;;;5.88;3.85;;;11.30;99.90;;;;;;5089168;28;20491;-67
2021/11/11 03:06:41;;;;;;;7.45;4.88;;;11.30;99.90;;;;;;5087763;28;20059;-67
2021/11/11 03:09:08;;;;;;;8.43;5.88;;;11.20;99.90;;;;;;5089043;28;20048;-67
2021/11/11 03:11:37;;;;;;;7.90;5.75;;;11.20;99.90;;;;;;5091290;28;20059;-67
2021/11/11 03:14:04;;;;;;;7.40;5.00;;;11.10;99.90;;;;;;5089452;28;20048;-67
2021/11/11 03:16:31;;;;;;;7.53;5.93;;;11.10;99.90;;;;;;5090824;28;20040;-67
2021/11/11 03:18:58;;;;;;;9.70;6.90;;;11.00;99.90;;;;;;5088952;28;20154;-68
2021/11/11 03:21:25;;;;;;;8.70;7.25;;;11.00;99.90;;;;;;5090684;28;20055;-67
2021/11/11 03:23:52;;;;;;;12.40;7.97;;;11.00;99.90;;;;;;5095877;28;20449;-67
2021/11/11 03:26:19;;;;;;;8.93;7.15;;;11.00;99.90;;;;;;5090069;28;20070;-67
2021/11/11 03:28:46;;;;;;;12.18;8.07;;;11.00;99.90;;;;;;5090654;28;20048;-67
2021/11/11 03:31:14;;;;;;;8.15;7.32;;;11.00;99.90;;;;;;5072096;28;20047;-67
2021/11/11 03:33:41;;;;;;;9.55;8.55;;;11.00;99.90;;;;;;5088143;28;20048;-67
2021/11/11 03:36:08;;;;;;;9.52;8.50;;;11.10;99.90;;;;;;5088654;28;20487;-67
2021/11/11 03:38:35;;;;;;;11.05;8.38;;;11.20;99.90;;;;;;5089160;28;20047;-67
2021/11/11 03:41:02;;;;;;;8.27;7.40;;;11.20;99.90;;;;;;5089932;28;20518;-67
2021/11/11 03:43:29;;;;;;;11.18;8.40;;;11.30;99.90;;;;;;5089140;28;20060;-67
2021/11/11 03:45:57;;;;;;;9.77;7.35;;;11.30;99.90;;;;;;5071793;28;20055;-67
2021/11/11 03:48:24;;;;;;;10.82;8.60;;;11.40;99.90;;;;;;5088566;28;20097;-66
2021/11/11 03:50:51;;;;;;;11.70;8.35;;;11.40;99.90;;;;;;5089430;28;20048;-66
2021/11/11 03:53:18;;;;;;;10.18;8.73;;;11.50;99.90;;;;;;5094394;28;20531;-67
2021/11/11 03:55:45;;;;;;;8.82;7.93;;;11.50;99.90;;;;;;5088764;28;20516;-67
2021/11/11 03:58:16;;;;;;;9.20;8.15;;;11.50;99.90;;;;;;5089519;28;20040;-67
2021/11/11 04:00:43;;;;;;;13.82;8.48;;;11.60;99.90;;;;;;5090137;28;20471;-66
2021/11/11 04:03:10;;;;;;;17.08;9.30;;;11.60;99.90;;;;;;5088223;28;20747;-66
2021/11/11 04:05:37;;;;;;;9.38;8.25;;;11.60;99.90;;;;;;5090593;28;20052;-68
2021/11/11 04:08:04;;;;;;;14.88;9.77;;;11.60;99.90;;;;;;5088122;28;20067;-67
2021/11/11 04:10:33;;;;;;;11.35;10.15;;;11.60;99.90;;;;;;5089844;28;20446;-65
2021/11/11 04:13:01;;;;;;;12.07;10.77;;;11.60;99.90;;;;;;5089685;28;20075;-67
2021/11/11 04:15:28;;;;;;;14.52;11.82;;;11.60;99.90;;;;;;5088358;28;20052;-66
2021/11/11 04:17:56;;;;;;;12.45;10.68;;;11.50;99.90;;;;;;5087851;28;20433;-66
2021/11/11 04:20:23;;;;;;;14.90;12.15;;;11.60;99.90;;;;;;5071856;28;20060;-66
2021/11/11 04:22:51;;;;;;;14.55;11.68;;;11.50;99.90;;;;;;5088433;28;20044;-66
2021/11/11 04:28:05;;;;;;;15.00;12.85;;;11.50;99.90;;;;;;5088076;28;20055;-66
2021/11/11 04:30:33;;;;;;;13.13;11.70;;;11.50;99.90;;;;;;5088012;28;20040;-66
2021/11/11 04:33:01;;;;;;;15.82;12.52;;;11.40;99.90;;;;;;5091090;28;20051;-66
2021/11/11 04:35:28;;;;;;;15.15;12.07;;;11.40;99.90;;;;;;5092322;28;20036;-66
2021/11/11 04:51:44;;;;;;;14.85;11.38;;;10.90;99.90;;;;;;5093385;28;20495;-68
2021/11/11 05:05:04;;;;;;;13.57;11.98;;;10.50;99.90;;;;;;5093261;28;20044;-67
2021/11/11 05:07:31;;;;;;;15.63;11.73;;;10.40;99.90;;;;;;5075066;28;20134;-67
2021/11/11 05:09:58;;;;;;;15.02;11.90;;;10.40;99.90;;;;;;5072503;28;20051;-67
2021/11/11 05:12:25;;;;;;;16.27;12.95;;;10.30;99.90;;;;;;5090614;28;20045;-67
2021/11/11 05:14:52;;;;;;;14.63;12.27;;;10.30;99.90;;;;;;5091902;28;20048;-68
2021/11/11 05:17:22;;;;;;;14.95;11.93;;;10.30;99.90;;;;;;5092602;28;20333;-68
2021/11/11 05:19:50;;;;;;;;;;;10.20;99.90;;;;;;5092884;28;20491;-67
2021/11/11 05:22:16;;;;;;;17.85;12.73;;;10.20;99.90;;;;;;5097861;28;19920;-67
2021/11/11 05:24:43;;;;;;;14.63;11.20;;;10.20;99.90;;;;;;5099968;28;20113;-67
2021/11/11 05:27:12;;;;;;;14.98;11.70;;;10.10;99.90;;;;;;5091496;28;20055;-67
2021/11/11 05:29:39;;;;;;;16.33;12.18;;;10.10;99.90;;;;;;5092777;28;20511;-68
2021/11/11 05:32:07;;;;;;;16.33;12.52;;;10.10;99.90;;;;;;5090699;28;20127;-67
2021/11/11 05:34:34;;;;;;;17.88;13.60;;;10.10;99.90;;;;;;5092202;28;20147;-66
2021/11/11 05:37:01;;;;;;;19.02;12.82;;;10.10;99.90;;;;;;5074059;28;20056;-67
2021/11/11 05:39:28;;;;;;;16.98;13.68;;;10.10;99.90;;;;;;5074290;28;20380;-66
2021/11/11 05:41:55;;;;;;;14.05;11.63;;;10.10;99.90;;;;;;5091834;28;20442;-67
2021/11/11 05:44:22;;;;;;;16.50;12.10;;;10.00;99.90;;;;;;5091324;28;20437;-66
2021/11/11 05:46:49;;;;;;;15.43;11.95;;;10.00;99.90;;;;;;5090846;28;20044;-67
2021/11/11 05:49:16;;;;;;;15.88;12.90;;;10.00;99.90;;;;;;5092474;28;20117;-66
2021/11/11 05:51:43;;;;;;;15.93;12.07;;;9.90;99.90;;;;;;5073463;28;20058;-68
2021/11/11 05:54:12;;;;;;;17.77;13.23;;;9.90;99.90;;;;;;5091764;28;20040;-68
2021/11/11 05:56:39;;;;;;;15.15;12.27;;;9.90;99.90;;;;;;5090597;28;20059;-67
2021/11/11 05:59:06;;;;;;;14.68;11.25;;;9.90;99.90;;;;;;5090978;28;20056;-66
2021/11/11 06:01:33;;;;;;;16.48;11.90;;;9.80;99.90;;;;;;5090931;28;20055;-67
2021/11/11 06:04:01;;;;;;;14.23;11.10;;;9.80;99.90;;;;;;5082836;28;20040;-68
2021/11/11 06:06:29;;;;;;;16.85;12.48;;;9.80;99.90;;;;;;5092815;28;20480;-67
2021/11/11 06:08:56;;;;;;;16.67;11.20;;;9.70;99.90;;;;;;5086714;28;20051;-68
2021/11/11 06:11:23;;;;;;;18.75;12.73;;;9.80;99.90;;;;;;5083564;28;20073;-68
2021/11/11 06:13:51;;;;;;;19.13;12.82;;;9.80;99.90;;;;;;5090423;28;20052;-68
2021/11/11 06:16:18;;;;;;;17.90;12.80;;;9.80;99.90;;;;;;5074233;28;20048;-68
2021/11/11 06:18:45;;;;;;;17.23;12.15;;;9.80;99.90;;;;;;5089638;28;20048;-68
2021/11/11 06:21:12;;;;;;;23.25;14.63;;;9.70;99.90;;;;;;5090637;28;20147;-68
2021/11/11 06:23:39;;;;;;;17.80;11.40;;;9.70;99.90;;;;;;5095103;28;20055;-68
2021/11/11 06:26:06;;;;;;;17.85;12.10;;;9.70;99.90;;;;;;5091730;28;20362;-68
2021/11/11 06:28:33;;;;;;;18.30;12.18;;;9.70;99.90;;;;;;5091681;28;20055;-68
2021/11/11 06:31:00;;;;;;;15.07;11.10;;;9.70;99.90;;;;;;5089671;28;20104;-68
2021/11/11 06:33:27;;;;;;;19.35;12.15;;;9.70;99.90;;;;;;5090641;28;20120;-68
2021/11/11 06:35:54;;;;;;;19.65;12.52;;;9.70;99.90;;;;;;5074041;28;20047;-68
2021/11/11 06:38:22;;;;;;;18.55;12.63;;;9.60;99.90;;;;;;5091004;28;20044;-67
2021/11/11 06:40:52;;;;;;;19.00;13.55;;;9.60;99.90;;;;;;5090210;28;20793;-67
2021/11/11 06:43:19;;;;;;;16.08;12.63;;;9.50;99.90;;;;;;5089865;28;20165;-66
2021/11/11 06:45:46;;;;;;;105.72;73.10;;;9.50;99.90;;;;;;5089858;28;20484;-66
2021/11/11 06:48:13;;;;;;;31.95;21.80;;;9.50;99.90;;;;;;5089011;28;20047;-67
2021/11/11 06:50:41;;;;;;;29.92;19.60;;;9.50;99.90;;;;;;5090244;28;20048;-66
2021/11/11 06:53:09;;;;;;;24.20;17.00;;;9.50;99.90;;;;;;5094789;28;20131;-68
2021/11/11 06:55:36;;;;;;;17.77;12.95;;;9.40;99.90;;;;;;5072307;28;20055;-69
2021/11/11 06:58:03;;;;;;;15.63;11.30;;;9.40;99.90;;;;;;5090565;28;20056;-67
2021/11/11 07:00:30;;;;;;;17.38;12.88;;;9.40;99.90;;;;;;5090695;28;20051;-68
2021/11/11 07:02:57;;;;;;;20.35;12.73;;;9.30;99.90;;;;;;5090239;28;20129;-68
2021/11/11 07:05:24;;;;;;;19.83;13.07;;;9.30;99.90;;;;;;5090453;28;20048;-68
2021/11/11 07:07:51;;;;;;;17.52;12.27;;;9.30;99.90;;;;;;5088278;28;20097;-67
2021/11/11 07:10:18;;;;;;;122.22;79.32;;;9.30;99.90;;;;;;5088283;28;20070;-68
2021/11/11 07:12:45;;;;;;;423.38;340.92;;;9.30;99.90;;;;;;5087616;28;20411;-66
2021/11/11 07:15:14;;;;;;;103.38;75.47;;;9.30;99.90;;;;;;5087401;28;20040;-68
2021/11/11 07:17:41;;;;;;;70.53;46.72;;;9.30;99.90;;;;;;5088480;28;20059;-68
2021/11/11 07:20:11;;;;;;;44.00;30.08;;;9.30;99.90;;;;;;5085746;28;20050;-68
2021/11/11 07:22:39;;;;;;;33.13;23.35;;;9.30;99.90;;;;;;5082746;28;20448;-68
2021/11/11 07:25:07;;;;;;;26.33;18.77;;;9.20;99.90;;;;;;5072287;28;20066;-67
2021/11/11 07:27:34;;;;;;;20.80;13.70;;;9.30;99.90;;;;;;5089405;28;20093;-66
2021/11/11 07:30:06;;;;;;;20.98;14.38;;;9.30;99.90;;;;;;5088617;28;20044;-68
2021/11/11 07:32:33;;;;;;;19.83;14.15;;;9.40;99.90;;;;;;5088907;28;20047;-68
2021/11/11 07:35:00;;;;;;;22.42;14.93;;;9.40;99.90;;;;;;5087804;28;20044;-69
2021/11/11 07:37:27;;;;;;;17.85;12.80;;;9.40;99.90;;;;;;5090329;28;20062;-69
2021/11/11 07:39:54;;;;;;;15.68;11.05;;;9.50;99.90;;;;;;5089824;28;20507;-68
2021/11/11 07:42:22;;;;;;;19.13;12.75;;;9.50;99.90;;;;;;5090306;28;20067;-68
2021/11/11 07:44:51;;;;;;;20.10;13.32;;;9.60;99.90;;;;;;5090594;28;20486;-68
2021/11/11 07:47:26;;;;;;;17.23;12.90;;;9.70;99.90;;;;;;5085318;28;20056;-69
2021/11/11 07:49:57;;;;;;;19.27;13.85;;;9.70;99.90;;;;;;5088121;28;20052;-70
2021/11/11 07:52:25;;;;;;;25.42;15.10;;;9.70;99.90;;;;;;5088413;28;20495;-69
2021/11/11 07:54:53;;;;;;;18.88;13.07;;;9.80;99.90;;;;;;5087096;28;20146;-69
2021/11/11 07:57:21;;;;;;;24.08;13.27;;;9.90;99.90;;;;;;5069744;28;20060;-69
2021/11/11 07:59:49;;;;;;;18.65;12.77;;;10.00;99.90;;;;;;5083925;28;20052;-69
2021/11/11 08:02:16;;;;;;;17.77;12.98;;;10.10;99.90;;;;;;5085844;28;20048;-69
2021/11/11 08:04:44;;;;;;;15.93;12.40;;;10.10;99.90;;;;;;5087380;28;20126;-72
2021/11/11 08:07:12;;;;;;;19.35;13.18;;;10.20;99.90;;;;;;5085500;28;20036;-70
2021/11/11 08:09:39;;;;;;;18.25;14.15;;;10.20;99.90;;;;;;5068343;28;20058;-69
2021/11/11 08:12:07;;;;;;;18.15;12.43;;;10.30;99.90;;;;;;5073306;28;20547;-70
2021/11/11 08:14:34;;;;;;;17.25;13.50;;;10.30;99.90;;;;;;5090292;28;20065;-69
2021/11/11 08:17:06;;;;;;;17.42;13.85;;;10.30;99.90;;;;;;5087123;28;20055;-70
2021/11/11 08:19:33;;;;;;;17.50;12.98;;;10.30;99.90;;;;;;5087191;28;20059;-70
2021/11/11 08:22:00;;;;;;;17.95;13.07;;;10.40;99.90;;;;;;5073234;28;20408;-69
2021/11/11 08:24:27;;;;;;;19.17;13.50;;;10.40;99.90;;;;;;5093395;28;20048;-67
2021/11/11 08:26:54;;;;;;;18.23;13.05;;;10.40;99.90;;;;;;5084859;28;20048;-68
2021/11/11 08:29:21;;;;;;;18.02;13.45;;;10.40;99.90;;;;;;5086041;28;20398;-68
2021/11/11 08:31:48;;;;;;;19.50;14.15;;;10.50;99.90;;;;;;5085196;28;20048;-71
2021/11/11 08:34:15;;;;;;;19.23;13.63;;;10.60;99.90;;;;;;5088671;28;20063;-68
2021/11/11 08:36:42;;;;;;;21.05;14.40;;;10.60;99.90;;;;;;5087773;28;20048;-67
2021/11/11 08:39:08;;;;;;;19.00;13.27;;;10.60;99.90;;;;;;5071568;28;20051;-69
2021/11/11 08:41:35;;;;;;;20.33;14.75;;;10.70;99.90;;;;;;5089192;28;20096;-70
2021/11/11 08:44:05;;;;;;;19.65;13.30;;;10.70;99.90;;;;;;5088415;28;20041;-68
2021/11/11 08:46:32;;;;;;;64.97;47.75;;;10.80;99.90;;;;;;5089655;28;20453;-69
2021/11/11 08:49:00;;;;;;;82.50;57.05;;;10.90;99.90;;;;;;5089268;28;20109;-71
2021/11/11 08:51:28;;;;;;;31.95;23.02;;;10.90;99.90;;;;;;5093937;28;20048;-69
2021/11/11 08:53:56;;;;;;;27.63;17.73;;;10.90;99.90;;;;;;5090521;28;20135;-70
2021/11/11 08:56:23;;;;;;;26.80;18.85;;;11.00;99.90;;;;;;5089521;28;20395;-68
2021/11/11 08:58:50;;;;;;;22.50;16.35;;;11.10;99.90;;;;;;5096207;28;20040;-69
2021/11/11 09:01:17;;;;;;;27.52;16.33;;;11.10;99.90;;;;;;5081302;28;20546;-70
2021/11/11 09:03:45;;;;;;;23.45;16.98;;;11.20;99.90;;;;;;5087071;28;20047;-70
2021/11/11 09:06:12;;;;;;;26.73;16.67;;;11.30;99.90;;;;;;5087051;28;20048;-69
2021/11/11 09:08:39;;;;;;;23.48;18.02;;;11.30;99.90;;;;;;5087396;28;20490;-69
2021/11/11 09:11:06;;;;;;;21.90;17.25;;;11.40;99.90;;;;;;5089071;28;20373;-69
2021/11/11 09:13:33;;;;;;;25.52;15.90;;;11.50;99.90;;;;;;5090015;28;20047;-71
2021/11/11 09:16:01;;;;;;;22.00;16.00;;;11.60;99.90;;;;;;5071502;28;20047;-70
2021/11/11 09:18:29;;;;;;;20.10;16.10;;;11.70;99.90;;;;;;5084388;28;20055;-69
2021/11/11 09:21:02;;;;;;;20.17;15.73;;;11.80;99.90;;;;;;5091369;28;20040;-69
2021/11/11 09:23:29;;;;;;;19.70;15.15;;;11.80;99.90;;;;;;5102252;28;20657;-69
2021/11/11 09:25:56;;;;;;;20.60;16.40;;;11.90;99.90;;;;;;5091841;28;20055;-69
2021/11/11 09:28:23;;;;;;;23.27;15.93;;;12.00;99.90;;;;;;5091978;28;20052;-69
2021/11/11 09:30:50;;;;;;;21.70;16.33;;;12.10;99.90;;;;;;5092844;28;20066;-69
2021/11/11 09:33:17;;;;;;;23.42;17.77;;;12.10;99.90;;;;;;5092354;28;20226;-70
2021/11/11 09:35:45;;;;;;;22.30;17.90;;;12.10;99.90;;;;;;5092564;28;20056;-70
2021/11/11 09:38:12;;;;;;;18.70;15.57;;;12.20;99.90;;;;;;5093174;28;20044;-70
2021/11/11 09:40:39;;;;;;;19.55;14.98;;;12.20;99.90;;;;;;5091375;28;20056;-70
2021/11/11 09:43:16;;;;;;;21.80;15.80;;;12.20;99.90;;;;;;5092403;28;20379;-70
2021/11/11 09:45:45;;;;;;;19.05;14.63;;;12.20;99.90;;;;;;5092841;28;20036;-69
2021/11/11 09:48:14;;;;;;;18.52;13.30;;;12.30;99.90;;;;;;5090793;28;20044;-70
2021/11/11 09:50:42;;;;;;;16.95;13.15;;;12.30;99.90;;;;;;5092830;28;20040;-70
2021/11/11 09:53:11;;;;;;;16.77;12.65;;;12.30;99.90;;;;;;5102094;28;20050;-70
2021/11/11 09:58:38;;;;;;;21.83;13.75;;;12.20;99.90;;;;;;5089994;28;20131;-70
2021/11/11 10:01:07;;;;;;;;;;;12.20;99.90;;;;;;5092290;28;20143;-70
2021/11/11 10:03:41;;;;;;;18.10;13.05;;;12.20;99.90;;;;;;5091246;28;19920;-70
2021/11/11 10:06:12;;;;;;;19.17;13.63;;;12.20;99.90;;;;;;5091789;28;20036;-70
2021/11/11 10:08:42;;;;;;;17.70;13.52;;;12.10;99.90;;;;;;5092729;28;20063;-70
2021/11/11 10:11:11;;;;;;;16.25;12.07;;;12.10;99.90;;;;;;5092939;28;20054;-70
2021/11/11 10:13:38;;;;;;;21.65;14.02;;;12.10;99.90;;;;;;5092467;28;20048;-70
2021/11/11 10:16:07;;;;;;;19.23;13.88;;;12.10;99.90;;;;;;5075767;28;20495;-70
2021/11/11 10:18:46;;;;;;;20.85;14.02;;;12.10;99.90;;;;;;5094353;28;20455;-70
2021/11/11 10:21:31;;;;;;;17.95;13.25;;;12.10;99.90;;;;;;5092470;28;20048;-70
2021/11/11 10:24:20;;;;;;;14.93;11.60;;;12.10;99.90;;;;;;5112096;28;20491;-70
2021/11/11 10:26:52;;;;;;;;;;;12.10;99.90;;;;;;5112307;28;20425;-69
2021/11/11 10:29:30;;;;;;;15.38;11.77;;;12.10;99.90;;;;;;5110843;28;20401;-70
2021/11/11 10:32:10;;;;;;;17.90;12.98;;;12.10;99.90;;;;;;5104917;28;20069;-70
2021/11/11 10:34:45;;;;;;;16.92;12.45;;;12.10;99.90;;;;;;5089725;28;20484;-69
2021/11/11 10:37:12;;;;;;;12.65;9.52;;;12.20;99.90;;;;;;5090699;28;20044;-69
2021/11/11 10:39:41;;;;;;;11.18;8.93;;;12.20;99.90;;;;;;5090717;28;20059;-69
2021/11/11 10:42:17;;;;;;;10.45;7.80;;;12.30;99.90;;;;;;5104231;28;20044;-69
2021/11/11 10:44:46;;;;;;;9.60;7.68;;;12.30;99.90;;;;;;5094043;28;20043;-69
2021/11/11 10:47:15;;;;;;;11.23;8.85;;;12.30;99.90;;;;;;5093947;28;20074;-69
2021/11/11 10:49:42;;;;;;;11.15;7.93;;;12.40;99.90;;;;;;5063038;28;20087;-69
2021/11/11 10:52:35;;;;;;;10.05;8.13;;;12.30;99.90;;;;;;5096371;28;20086;-69
2021/11/11 10:55:10;;;;;;;10.40;7.40;;;12.40;99.90;;;;;;5085592;28;20052;-69
2021/11/11 10:57:37;;;;;;;7.57;6.22;;;12.40;99.90;;;;;;5100591;28;20119;-70
2021/11/11 11:00:21;;;;;;;9.75;8.23;;;12.50;99.90;;;;;;5085748;28;20059;-69
2021/11/11 11:02:58;;;;;;;11.18;8.02;;;12.50;99.90;;;;;;5087235;28;20066;-70
2021/11/11 11:05:29;;;;;;;11.15;7.15;;;12.50;99.90;;;;;;5079019;28;20357;-69
2021/11/11 11:08:04;;;;;;;8.05;5.82;;;12.50;99.90;;;;;;5089414;28;20040;-70
2021/11/11 11:10:32;;;;;;;10.23;7.68;;;12.60;99.90;;;;;;5091273;28;20055;-70
2021/11/11 11:12:59;;;;;;;10.35;6.82;;;12.60;99.90;;;;;;5073540;28;20056;-71
2021/11/11 11:15:42;;;;;;;9.65;6.82;;;12.60;99.90;;;;;;5093379;28;20059;-69
2021/11/11 11:18:13;;;;;;;11.93;6.28;;;12.70;99.90;;;;;;5083521;28;20044;-70
2021/11/11 11:20:40;;;;;;;10.52;6.88;;;12.70;99.90;;;;;;5092284;28;20092;-69
2021/11/11 11:23:25;;;;;;;10.63;5.78;;;12.70;99.90;;;;;;5089140;28;20150;-68
2021/11/11 11:26:08;;;;;;;9.10;6.22;;;12.70;99.90;;;;;;5059426;28;20047;-68
2021/11/11 11:28:49;;;;;;;10.27;5.40;;;12.70;99.90;;;;;;5089828;28;20081;-68
2021/11/11 11:31:26;;;;;;;7.40;4.80;;;12.80;99.90;;;;;;5085887;28;20451;-69
2021/11/11 11:33:55;;;;;;;8.50;5.43;;;12.70;99.90;;;;;;5070236;28;20068;-70
2021/11/11 11:37:06;;;;;;;8.35;4.63;;;12.80;99.90;;;;;;5089589;28;20051;-69
2021/11/11 11:39:55;;;;;;;119.97;20.00;;;12.80;99.90;;;;;;5075034;28;20039;-67
2021/11/11 11:42:24;;;;;;;22.23;6.82;;;12.80;99.90;;;;;;5085348;28;20079;-70
2021/11/11 11:44:52;;;;;;;332.00;293.25;;;12.80;99.90;;;;;;5087860;28;20040;-70
2021/11/11 11:47:38;;;;;;;278.40;224.88;;;12.80;99.90;;;;;;5088475;28;20056;-75
2021/11/11 11:50:14;;;;;;;20.55;16.38;;;12.90;99.90;;;;;;5087873;28;20046;-74
2021/11/11 11:52:45;;;;;;;12.32;9.52;;;12.90;99.90;;;;;;5091762;28;20044;-70
2021/11/11 11:55:24;;;;;;;6.68;4.50;;;12.90;99.90;;;;;;5088036;28;20404;-66
2021/11/11 11:57:57;;;;;;;27.40;22.90;;;12.90;99.90;;;;;;5083980;28;20487;-71
2021/11/11 12:28:50;;;;;;;6.15;2.88;;;13.20;99.20;;;;;;5083086;28;20403;-77
2021/11/11 12:40:05;;;;;;;5.22;2.85;;;13.10;99.90;;;;;;5087862;28;20129;-75
2021/11/11 12:42:38;;;;;;;4.70;2.65;;;13.00;99.90;;;;;;5068770;28;20116;-76
2021/11/11 12:45:08;;;;;;;4.78;2.60;;;13.00;99.90;;;;;;5088368;28;20058;-76
2021/11/11 12:47:55;;;;;;;5.22;2.90;;;13.00;99.90;;;;;;5109502;28;20051;-75
2021/11/11 12:51:02;;;;;;;2.72;2.03;;;13.00;99.90;;;;;;5090091;28;20048;-76
2021/11/11 12:53:43;;;;;;;4.68;2.03;;;13.10;99.90;;;;;;5014604;28;20056;-76
2021/11/11 12:56:21;;;;;;;30.60;24.73;;;13.10;99.90;;;;;;5014943;28;20049;-74
2021/11/11 12:58:54;;;;;;;63.97;49.08;;;13.20;99.90;;;;;;5064892;28;20120;-77
2021/11/11 13:01:36;;;;;;;12.32;7.70;;;13.30;99.90;;;;;;5093915;28;20047;-75
2021/11/11 13:04:09;;;;;;;5.88;3.95;;;13.30;99.20;;;;;;5071384;28;20056;-73
2021/11/11 13:06:50;;;;;;;4.85;2.88;;;13.40;99.00;;;;;;5092007;28;20098;-72
2021/11/11 13:09:25;;;;;;;3.90;2.50;;;13.50;99.10;;;;;;5074889;28;20051;-74
2021/11/11 13:11:59;;;;;;;4.15;2.58;;;13.50;99.10;;;;;;5091859;28;20506;-74
2021/11/11 13:14:27;;;;;;;127.72;18.85;;;13.60;98.50;;;;;;5096937;28;20444;-75
2021/11/11 13:16:54;;;;;;;9.93;3.42;;;13.70;98.50;;;;;;5093051;28;20498;-77
2021/11/11 13:19:36;;;;;;;4.68;2.58;;;13.70;98.10;;;;;;5093144;28;20052;-74
2021/11/11 13:22:18;;;;;;;3.90;2.67;;;13.80;98.40;;;;;;5096131;28;20126;-72
2021/11/11 13:24:58;;;;;;;4.13;2.30;;;13.80;98.60;;;;;;5113726;27;20051;-72
2021/11/11 14:01:57;;;;;;;6.53;3.67;;;13.80;98.30;;;;;;5091970;28;20149;-69
2021/11/11 15:44:36;;;;;;;8.10;4.10;;;13.70;98.50;;;;;;5086885;28;20048;-70
2021/11/11 16:23:07;;;;;;;6.53;4.93;;;13.10;99.90;;;;;;5093934;28;20125;-71
2021/11/11 16:27:53;;;;;;;5.78;4.50;;;13.10;99.90;;;;;;5096051;28;20051;-69
2021/11/11 16:30:21;;;;;;;6.68;4.13;;;13.10;99.90;;;;;;5094386;28;20052;-70
2021/11/11 16:32:49;;;;;;;7.47;3.85;;;13.10;99.90;;;;;;5093625;28;20498;-70
2021/11/11 16:35:22;;;;;;;6.50;4.05;;;13.10;99.90;;;;;;5095044;28;20067;-70
2021/11/11 16:37:50;;;;;;;5.95;3.85;;;13.10;99.90;;;;;;5094136;28;20058;-70
2021/11/11 16:40:20;;;;;;;8.15;4.10;;;13.00;99.90;;;;;;5093402;28;20460;-70
2021/11/11 16:42:47;;;;;;;;;;;13.00;99.90;;;;;;5094898;28;20051;-74
2021/11/11 16:45:15;;;;;;;7.28;4.80;;;13.00;99.90;;;;;;5076723;28;19958;-75
2021/11/11 16:47:44;;;;;;;6.25;4.65;;;13.00;99.90;;;;;;5077221;28;20048;-75
2021/11/11 16:50:11;;;;;;;6.85;4.82;;;13.00;99.90;;;;;;5093003;28;20426;-76